• Join FlightAware (Why Join?)
  • Login
  • US Flag 
08:06PM EST


 

Airport Tracker/Info


-or-


 

Live Flight TrackerFlight Track Log ✈ SWA796 ✈ 04-May-2013 ✈ KSTL - KCMH

Flight Track Log - Related Links

Times and Time Zones

All times are in EDT time to prevent confusion due to time zone crossing. See the SWA796 flight status page for this flight to view local times or setup timezone preferences in your user account.

Time Position Orientation Groundspeed Altitude Reporting Facility
EDT Latitude Longitude Course Direction KTS MPH feet Rate Location/Type
11:17AM 38.7333 -90.2833 82° East 188 216 3,300  Level Gateway (St. Louis) TRACON
11:18AM 38.7286 -90.2703 115° Southeast 182 209 4,000 2,640 Climbing Kansas City Center
11:19AM 38.7267 -90.2017 92° East 188 216 6,800 3,120 Climbing Kansas City Center
11:20AM 38.7347 -90.1131 83° East 235 270 10,500 3,360 Climbing Kansas City Center
11:21AM 38.7450 -90.0094 83° East 286 329 13,800 3,540 Climbing Kansas City Center
11:22AM 38.7550 -89.9042 83° East 299 344 17,800 3,120 Climbing Kansas City Center
11:23AM 38.7740 -89.5843 82° East  Level FlightAware Approximate
11:23AM 38.7669 -89.7669 84° East 321 369 20,300  Level Kansas City Center
11:24AM 38.7806 -89.6367 82° East 348 400 23,400 2,760 Climbing Kansas City Center
11:25AM 38.7922 -89.5119 83° East 354 407 26,000 2,100 Climbing Kansas City Center
11:26AM 38.8072 -89.3836 81° East 366 421 27,800 1,740 Climbing Kansas City Center
11:27AM 38.8261 -89.2386 80° East 383 441 29,600 1,680 Climbing Kansas City Center
11:28AM 38.8439 -89.0981 81° East 399 459 31,300 1,680 Climbing Kansas City Center
11:29AM 38.8586 -88.9797 81° East 399 459 33,100 1,680 Climbing Kansas City Center
11:30AM 38.8797 -88.8411 79° East 396 456 34,800 1,260 Climbing Kansas City Center
11:31AM 38.9003 -88.6708 81° East 401 461 35,800 900 Climbing Kansas City Center
11:32AM 38.9158 -88.5303 82° East 417 480 36,700 1,080 Climbing Kansas City Center
11:33AM 38.9631 -88.3850 67° East 427 491 38,100 1,200 Climbing Kansas City Center
11:34AM 39.0208 -88.2489 61° Northeast 439 505 39,000 420 Climbing Indianapolis Center
11:35AM 39.0825 -88.1067 61° Northeast 445 512 39,000  Level Indianapolis Center
11:36AM 39.1453 -87.9647 60° Northeast 445 512 39,000  Level Kansas City Center
11:37AM 39.2036 -87.8278 61° Northeast 443 510 39,000  Level Indianapolis Center
11:38AM 39.2633 -87.6883 61° Northeast 443 510 39,000  Level Indianapolis Center
11:39AM 39.3194 -87.5536 62° Northeast 443 510 39,000  Level Indianapolis Center
11:40AM 39.3794 -87.4156 61° Northeast 442 509 39,000  Level Indianapolis Center
11:41AM 39.4383 -87.2750 61° Northeast 446 513 39,000  Level Indianapolis Center
11:42AM 39.5092 -87.1067 61° Northeast 445 512 39,000  Level Indianapolis Center
11:43AM 39.5683 -86.9656 61° Northeast 446 513 39,000 -300 Level Indianapolis Center
11:44AM 39.6264 -86.8250 62° Northeast 445 512 38,400 -840 Descending Indianapolis Center
11:45AM 39.6836 -86.6853 62° Northeast 440 506 37,400 -960 Descending Indianapolis Center
11:46AM 39.7400 -86.5492 62° Northeast 429 494 36,500 -960 Descending Indianapolis Center
11:47AM 39.7967 -86.4106 62° Northeast 429 494 35,500 -1,080 Descending Indianapolis Center
11:48AM 39.8394 -86.2522 71° East 419 482 34,400 -1,020 Descending Indianapolis Center
11:49AM 39.8686 -86.1153 74° East 414 476 33,500 -1,020 Descending Indianapolis Center
11:50AM 39.8986 -85.9728 75° East 409 471 32,400 -1,080 Descending Indianapolis Center
11:51AM 39.9283 -85.8333 74° East 402 463 31,400 -1,020 Descending Indianapolis Center
11:52AM 39.9567 -85.6942 75° East 399 459 30,400 -1,020 Descending Indianapolis Center
11:53AM 39.9856 -85.5572 75° East 396 456 29,400 -720 Descending Indianapolis Center
11:54AM 40.0192 -85.3939 75° East 389 448 29,000 -240 Descending Indianapolis Center
11:55AM 40.0472 -85.2586 75° East 389 448 29,000 -60 Level Indianapolis Center
11:56AM 40.0747 -85.1233 75° East 388 447 28,900 -600 Descending Indianapolis Center
11:58AM 40.1011 -84.9864 76° East 390 449 27,800 -1,080 Descending Indianapolis Center
11:59AM 40.1272 -84.8561 75° East 384 442 26,800 -1,080 Descending Indianapolis Center
12:00PM 40.1542 -84.7206 75° East 382 440 25,700 -1,020 Descending Indianapolis Center
12:01PM 40.1800 -84.5889 76° East 371 427 24,800 -1,020 Descending Indianapolis Center
12:02PM 40.2078 -84.4550 75° East 377 434 23,700 -900 Descending Indianapolis Center
12:03PM 40.2381 -84.3003 76° East 373 429 23,000 -600 Descending Indianapolis Center
12:04PM 40.2636 -84.1700 76° East 366 421 22,600 -1,080 Descending Indianapolis Center
12:05PM 40.2867 -84.0458 76° East 350 403 20,800 -1,740 Descending Indianapolis Center
12:06PM 40.3103 -83.9278 75° East 332 382 19,100 -1,680 Descending Indianapolis Center
12:07PM 40.3342 -83.8100 75° East 320 368 17,400 -1,680 Descending Indianapolis Center
12:08PM 40.3544 -83.7086 75° East 310 357 15,800 -1,980 Descending Indianapolis Center
12:09PM 40.3275 -83.6033 109° East 301 346 13,500 -1,980 Descending Indianapolis Center
12:10PM 40.2786 -83.5169 127° Southeast 294 338 11,700 -1,680 Descending Indianapolis Center
12:11PM 40.2333 -83.4364 126° Southeast 273 314 10,100 -1,620 Descending Indianapolis Center
12:12PM 40.2003 -83.3778 126° Southeast 242 278 8,800 -1,740 Descending Indianapolis Center
12:13PM 40.1556 -83.3014 127° Southeast 235 270 7,000 -1,740 Descending Indianapolis Center
12:14PM 40.1183 -83.2342 126° Southeast 231 266 5,300 -1,560 Descending Indianapolis Center
12:15PM 40.0811 -83.1697 127° Southeast 228 262 3,900 -1,200 Descending Indianapolis Center
12:16PM 40.0381 -83.0942 127° Southeast 224 258 2,600 -600 Descending Indianapolis Center
12:17PM 40.0086 -83.0422 126° Southeast 195 224 2,600 -300 Level Indianapolis Center
12:18PM 40.0006 -83.0025 105° East 145 167 2,100 -600 Descending Indianapolis Center
12:18PM 40.0003 -82.9936 92° East 161 185 2,000 -720 Descending Indianapolis Center
12:19PM 39.9972 -82.9558 96° East 126 145 1,400 -720 Descending Indianapolis Center
12:19PM 39.9967 -82.9453 94° East 142 163 1,300 -420 Descending Indianapolis Center
12:20PM 39.9942 -82.8953 94° East 138 159 900 -420 Descending Indianapolis Center
12:22PM 39.9980 -82.8920 120° Southeast  Level Estimated
12:29PM 39.9980 -82.8920 120° Southeast  Level Estimated